Disclaimer

Please do not use the information listed here in-flight or in-navigation, as they are not provided to us by the airports but are provided by volunteers, so they might be outdated.

Search


Regions


Airport information page

Radio informations:
Tower (TWR) - 256.675 MHz
OPS - 386.625 MHz
ZONE - 127.35 MHz
Ground (GND) - 342.125 MHz
DEP - 123.3 MHz
Automatic Terminal Information Service (ATIS) - 291.675 MHz
Approach (APP) - 250.85 MHz

Airport informations:
Latitude: 53° 09' 58.20" N
Longitude: 000° 31' 25.72" W
Elevation: 231 feet - 70 meters
Operating hours: N/A
Operating agency: Military
Timezone: UTC 0(+1DT)
Fuel: JP-8, SemiKeroscene MIL Spec T-83133, without icing inhibitor

100/130 MIL Spec, low lead, aviation gasoline (BLUE)

Runway information:
02/20 - 9000 x 200 feet< - >2743 x 61 meters

Recent METARs:
EGXW 151250Z AUTO 14026G37KT 9999 OVC046/// 01/M02 Q1009
EGXW 151350Z AUTO 13027KT 9999 OVC045/// 01/M02 Q1008
EGXW 151350Z AUTO 13027KT 9999 OVC045/// 01/M02 Q1008

Airport on the map: